createdAt,value
2022-08-05T00:03:31.834Z,24.90
2022-08-05T00:08:36.274Z,24.70
2022-08-05T00:13:41.671Z,24.60
2022-08-05T00:18:48.141Z,24.40
2022-08-05T00:24:05.009Z,24.30
2022-08-05T00:29:15.783Z,24.20
2022-08-05T00:34:56.202Z,24.00
2022-08-05T00:39:58.412Z,23.90
2022-08-05T00:45:04.074Z,23.70
2022-08-05T00:50:08.151Z,23.60
2022-08-05T00:55:12.217Z,23.50
2022-08-05T01:00:17.041Z,23.30
2022-08-05T01:05:23.241Z,23.30
2022-08-05T01:10:29.867Z,23.20
2022-08-05T01:15:36.961Z,23.10
2022-08-05T01:20:53.014Z,22.90
2022-08-05T01:26:04.515Z,22.90
2022-08-05T01:31:11.535Z,22.80
2022-08-05T01:36:16.777Z,22.80
2022-08-05T01:41:22.598Z,22.80
2022-08-05T01:46:41.329Z,22.60
2022-08-05T01:51:51.721Z,22.60
2022-08-05T01:58:09.366Z,22.50
2022-08-05T02:02:28.293Z,22.50
2022-08-05T02:07:33.692Z,22.40
2022-08-05T02:12:39.842Z,22.40
2022-08-05T02:18:31.909Z,22.20
2022-08-05T02:23:13.534Z,22.20
2022-08-05T02:28:29.058Z,22.00
2022-08-05T02:33:38.837Z,22.00
2022-08-05T02:38:43.869Z,21.80
2022-08-05T02:44:02.894Z,21.80
2022-08-05T02:49:12.537Z,21.60
2022-08-05T02:54:34.955Z,21.60
2022-08-05T02:59:50.295Z,21.60
2022-08-05T03:04:56.150Z,21.50
2022-08-05T03:09:59.370Z,21.40
2022-08-05T03:15:06.719Z,21.40
2022-08-05T03:20:13.486Z,22.90
2022-08-05T03:26:03.486Z,21.40
2022-08-05T03:30:42.298Z,21.30
2022-08-05T03:35:47.976Z,21.10
2022-08-05T03:40:53.390Z,21.10
2022-08-05T03:46:01.602Z,21.00
2022-08-05T03:52:48.981Z,21.00
2022-08-05T03:56:35.845Z,20.70
2022-08-05T04:01:42.525Z,21.00
2022-08-05T04:06:50.985Z,21.00
2022-08-05T04:11:56.842Z,21.10
2022-08-05T04:17:00.942Z,21.30
2022-08-05T04:22:09.302Z,21.30
2022-08-05T04:27:16.062Z,21.40
2022-08-05T04:32:31.964Z,21.40
2022-08-05T04:38:01.503Z,21.50
2022-08-05T04:43:00.874Z,21.70
2022-08-05T04:48:05.103Z,22.00
2022-08-05T04:53:10.516Z,22.10
2022-08-05T04:58:14.869Z,22.20
2022-08-05T05:03:25.033Z,22.20
2022-08-05T05:08:30.414Z,22.10
2022-08-05T05:13:43.347Z,22.10
2022-08-05T05:19:08.903Z,22.10
2022-08-05T05:24:12.484Z,22.10
2022-08-05T05:29:16.021Z,22.20
2022-08-05T05:34:26.805Z,22.30
2022-08-05T05:39:35.200Z,22.20
2022-08-05T05:44:43.156Z,22.20
2022-08-05T05:49:57.001Z,22.20
2022-08-05T05:55:13.721Z,22.20
2022-08-05T06:00:18.037Z,22.30
2022-08-05T06:05:21.398Z,22.60
2022-08-05T06:10:25.852Z,23.20
2022-08-05T06:16:29.865Z,23.70
2022-08-05T06:20:56.200Z,24.20
2022-08-05T06:26:13.612Z,24.30
2022-08-05T06:31:30.549Z,24.10
2022-08-05T06:36:57.472Z,23.80
2022-08-05T06:42:04.174Z,23.50
2022-08-05T06:47:10.364Z,23.20
2022-08-05T06:52:37.221Z,23.20
2022-08-05T06:58:03.934Z,23.10
2022-08-05T07:03:07.505Z,23.20
2022-08-05T07:08:13.731Z,23.20
2022-08-05T07:13:57.947Z,23.40
2022-08-05T07:19:02.268Z,23.50
2022-08-05T07:24:11.317Z,23.70
2022-08-05T07:29:16.603Z,24.20
2022-08-05T07:34:26.216Z,24.60
2022-08-05T07:40:04.788Z,24.60
2022-08-05T07:44:56.995Z,24.80
2022-08-05T07:50:06.659Z,25.50
2022-08-05T07:55:44.381Z,25.70
2022-08-05T08:00:35.235Z,25.70
2022-08-05T08:05:39.632Z,25.80
2022-08-05T08:10:44.064Z,26.30
2022-08-05T08:16:35.000Z,26.80
2022-08-05T08:21:17.465Z,26.90
2022-08-05T08:26:21.467Z,26.70
2022-08-05T08:31:34.606Z,26.70
2022-08-05T08:36:52.435Z,26.60
2022-08-05T08:42:02.335Z,26.90
2022-08-05T08:47:21.857Z,27.30
2022-08-05T08:52:33.370Z,27.10
2022-08-05T08:57:48.138Z,26.80
2022-08-05T09:03:02.115Z,26.60
2022-08-05T09:08:05.863Z,26.80
2022-08-05T09:13:14.914Z,27.20
2022-08-05T09:18:20.684Z,27.90
2022-08-05T09:23:24.008Z,27.70
2022-08-05T09:28:33.409Z,28.10
2022-08-05T09:33:50.889Z,29.00
2022-08-05T09:38:58.209Z,29.10
2022-08-05T09:44:01.824Z,29.90
2022-08-05T09:49:18.937Z,29.90
2022-08-05T09:54:31.899Z,29.30
2022-08-05T09:59:37.173Z,29.30
2022-08-05T10:04:44.974Z,30.00
2022-08-05T10:10:14.443Z,30.30
2022-08-05T10:15:21.569Z,31.00
2022-08-05T10:20:26.712Z,31.10
2022-08-05T10:25:31.181Z,30.90
2022-08-05T10:31:20.728Z,30.70
2022-08-05T10:36:04.243Z,30.10
2022-08-05T10:41:12.428Z,29.70
2022-08-05T10:46:18.413Z,29.40
2022-08-05T10:51:59.926Z,29.70
2022-08-05T10:57:04.159Z,29.60
2022-08-05T11:02:08.809Z,29.70
2022-08-05T11:07:32.761Z,29.70
2022-08-05T11:12:50.860Z,30.00
2022-08-05T11:18:11.672Z,29.80
2022-08-05T11:24:02.376Z,29.20
2022-08-05T11:29:06.568Z,29.20
2022-08-05T11:34:21.183Z,29.10
2022-08-05T11:39:44.961Z,29.10
2022-08-05T11:44:54.433Z,29.20
2022-08-05T11:49:58.326Z,29.40
2022-08-05T11:55:07.050Z,29.90
2022-08-05T12:05:44.798Z,30.20
2022-08-05T12:10:49.582Z,30.60
2022-08-05T12:15:56.141Z,30.50
2022-08-05T12:21:10.325Z,30.60
2022-08-05T12:26:13.832Z,30.50
2022-08-05T12:31:23.365Z,30.30
2022-08-05T12:36:39.252Z,30.50
2022-08-05T12:41:44.053Z,30.40
2022-08-05T12:46:54.551Z,30.50
2022-08-05T12:52:13.976Z,30.60
2022-08-05T12:57:23.322Z,31.00
2022-08-05T13:02:30.467Z,31.60
2022-08-05T13:07:59.208Z,32.30
2022-08-05T13:13:00.678Z,32.90
2022-08-05T13:18:06.002Z,32.90
2022-08-05T13:23:12.504Z,33.20
2022-08-05T13:28:18.555Z,33.10
2022-08-05T13:34:22.573Z,32.10
2022-08-05T13:38:51.953Z,32.00
2022-08-05T13:43:55.530Z,31.30
2022-08-05T13:49:00.868Z,31.30
2022-08-05T13:54:12.387Z,32.40
2022-08-05T13:59:20.093Z,32.60
2022-08-05T14:04:42.374Z,31.70
2022-08-05T14:09:55.744Z,31.60
2022-08-05T14:14:59.178Z,31.60
2022-08-05T14:20:04.546Z,31.50
2022-08-05T14:25:21.896Z,31.20
2022-08-05T14:30:26.573Z,31.20
2022-08-05T14:35:37.507Z,31.10
2022-08-05T14:40:55.107Z,31.20
2022-08-05T14:45:58.285Z,30.90
2022-08-05T14:51:01.763Z,30.90
2022-08-05T14:56:08.423Z,30.40
2022-08-05T15:01:16.022Z,30.40
2022-08-05T15:11:53.286Z,30.70
2022-08-05T15:16:48.973Z,30.30
2022-08-05T15:21:54.393Z,30.10
2022-08-05T15:27:04.674Z,29.80
2022-08-05T15:32:12.607Z,28.10
2022-08-05T15:37:19.410Z,27.50
2022-08-05T15:42:54.835Z,26.70
2022-08-05T15:48:00.795Z,25.70
2022-08-05T15:53:04.765Z,25.40
2022-08-05T15:58:16.450Z,25.10
2022-08-05T16:03:20.552Z,24.50
2022-08-05T16:08:24.049Z,23.80
2022-08-05T16:13:35.492Z,23.20
2022-08-05T16:18:52.274Z,23.10
2022-08-05T16:24:00.199Z,22.40
2022-08-05T16:29:07.740Z,22.30
2022-08-05T16:34:12.092Z,21.50
2022-08-05T16:39:16.070Z,21.40
2022-08-05T16:44:21.157Z,20.90
2022-08-05T16:49:29.580Z,20.90
2022-08-05T16:54:33.296Z,20.50
2022-08-05T16:59:49.609Z,20.40
2022-08-05T17:05:01.950Z,20.20
2022-08-05T17:10:06.079Z,20.30
2022-08-05T17:15:15.545Z,20.40
2022-08-05T17:20:23.366Z,20.40
2022-08-05T17:25:39.609Z,20.50
2022-08-05T17:30:51.839Z,20.60
2022-08-05T17:36:07.741Z,20.50
2022-08-05T17:42:18.208Z,20.40
2022-08-05T17:46:39.296Z,20.20
2022-08-05T17:51:43.338Z,20.20
2022-08-05T17:56:49.621Z,20.10
2022-08-05T18:01:56.930Z,20.10
2022-08-05T18:07:01.880Z,20.00
2022-08-05T18:12:06.407Z,19.90
2022-08-05T18:18:00.559Z,19.90
2022-08-05T18:22:53.882Z,19.70
2022-08-05T18:27:58.350Z,19.60
2022-08-05T18:33:03.218Z,19.60
2022-08-05T18:38:08.011Z,19.60
2022-08-05T18:43:16.296Z,19.50
2022-08-05T18:48:30.895Z,19.50
2022-08-05T18:53:44.937Z,19.20
2022-08-05T18:58:54.958Z,19.10
2022-08-05T19:04:06.371Z,19.10
2022-08-05T19:09:16.428Z,19.00
2022-08-05T19:14:38.066Z,18.90
2022-08-05T19:19:46.981Z,18.90
2022-08-05T19:24:54.372Z,19.10
2022-08-05T19:30:02.821Z,19.10
2022-08-05T19:35:08.435Z,19.10
2022-08-05T19:40:12.122Z,19.10
2022-08-05T19:45:15.977Z,19.00
2022-08-05T19:50:25.351Z,19.00
2022-08-05T19:56:14.451Z,18.30
2022-08-05T20:00:53.056Z,18.00
2022-08-05T20:05:58.015Z,17.40
2022-08-05T20:11:01.536Z,17.20
2022-08-05T20:16:06.567Z,17.20
2022-08-05T20:21:11.651Z,17.20
2022-08-05T20:26:17.084Z,17.20
2022-08-05T20:31:28.340Z,17.20
2022-08-05T20:36:43.273Z,17.40
2022-08-05T20:41:48.260Z,17.60
2022-08-05T20:46:51.557Z,17.60
2022-08-05T20:51:57.361Z,17.20
2022-08-05T20:57:01.174Z,16.90
2022-08-05T21:02:07.173Z,16.90
2022-08-05T21:07:14.486Z,16.80
2022-08-05T21:12:20.029Z,16.80
2022-08-05T21:17:26.259Z,16.80
2022-08-05T21:22:33.785Z,16.70
2022-08-05T21:27:38.645Z,16.60
2022-08-05T21:32:43.378Z,16.60
2022-08-05T21:37:53.058Z,16.60
2022-08-05T21:42:59.234Z,16.60
2022-08-05T21:48:06.403Z,16.50
2022-08-05T21:53:16.734Z,16.60
2022-08-05T21:58:24.837Z,16.60
2022-08-05T22:03:51.773Z,16.60
2022-08-05T22:08:57.850Z,16.60
2022-08-05T22:14:20.301Z,16.60
2022-08-05T22:20:01.701Z,16.70
2022-08-05T22:25:18.109Z,16.70
2022-08-05T22:30:34.972Z,16.70
2022-08-05T22:35:48.586Z,16.80
2022-08-05T22:40:55.135Z,16.80
2022-08-05T22:45:58.978Z,17.10
2022-08-05T22:51:06.760Z,17.10
2022-08-05T22:56:12.613Z,17.40
2022-08-05T23:01:16.355Z,17.50
2022-08-05T23:06:20.030Z,17.50
2022-08-05T23:11:31.649Z,17.40
2022-08-05T23:16:52.719Z,17.40
2022-08-05T23:21:56.238Z,17.40
2022-08-05T23:27:00.997Z,17.40
2022-08-05T23:32:05.563Z,17.30
2022-08-05T23:37:08.998Z,17.30
2022-08-05T23:42:16.379Z,17.30
2022-08-05T23:47:27.441Z,17.20
2022-08-05T23:52:50.084Z,17.20
2022-08-05T23:57:56.241Z,17.10
